Freda, North Dakota
Current Conditions -  °F | °C
As of 9:15 AM on Thursday 29 Jan 2015 (Local Time) from KY19 Reporting Station
Overcast Overcast  
Wind Chill: 16°   Ceiling: 1900
Heat Index: 27°   Visibility: 10mi
Dew Point: 19°   Wind: 13mph
Humidity: 74%   Direction: 350°N
Pressure: 30.46"   Gusts: NA
Location:  46.3317°N, 101.236°W
Report Text: KY19 291615Z AUTO 35011KT 10SM OVC019 M03/M07 A3046 RMK AO2
Loading
Personal Weather Stations






























Interactive Weather Map New forecast layout! Learn more

10-Day Weather Forecast

Advertisements
Track Severe Weather on mobile